Список аэропортов
Фактическая погода:

25 июня, 11:30
Температура: +18°C (+17.1*)
Ветер: юго-восточный 8 м/с
Давление: *748 мм
неб. облачность
кучево-дождевые 1200 м
Время (МСК)Темп. СВетерВлажностьДавлениеОблачностьОсадки
09:00+17ЮВ, 5 м/с70%1000 гПаоблачнодождь
10:00+16ЮВ, 5 м/с80%1000 гПаоблачнодождь
11:00+17ЮВ, 7 м/с79%999 гПаоблачнодождь
12:00+17ЮВ, 7 м/с83%998 гПаоблачнодождь
13:00+19ЮВ, 7 м/с72%998 гПаоблачносл. дождь
14:00+18Ю, 6 м/с82%997 гПаоблачнодождь
15:00+17Ю, 5 м/с85%997 гПаоблачнодождь
16:00+17Ю, 4 м/с87%997 гПаоблачнодождь
17:00+18Ю, 4 м/с89%997 гПаоблачнодождь
18:00+16ЮЗ, 5 м/с83%997 гПаоблачнодождь
19:00+14ЮЗ, 5 м/с83%997 гПас прояснениями
20:00+13ЮЗ, 4 м/с90%998 гПаоблачно
21:00+12ЮЗ, 4 м/с95%998 гПаоблачносл. дождь
22:00+12ЮЗ, 4 м/с95%999 гПаоблачнодождь
23:00+12ЮЗ, 4 м/с96%998 гПаоблачносл. дождь
26 июня
00:00+12ЮЗ, 4 м/с96%998 гПаоблачносл. дождь
01:00+12ЮЗ, 5 м/с96%999 гПаоблачносл. дождь
02:00+12З, 7 м/с92%999 гПаоблачнодождь
03:00+12З, 7 м/с86%1000 гПаоблачносл. дождь
04:00+11З, 7 м/с86%1001 гПаоблачно
05:00+12З, 7 м/с85%1001 гПаоблачно
06:00+13З, 9 м/с76%1002 гПас прояснениями
07:00+14З, 9 м/с66%1002 гПаясно
08:00+15З, 9 м/с61%1002 гПаоблачно
09:00+15З, 9 м/с57%1002 гПаоблачно
10:00+17З, 9 м/с50%1003 гПас прояснениями
11:00+18З, 9 м/с45%1003 гПамалооблачно
12:00+18З, 8 м/с44%1004 гПас прояснениями
13:00+19З, 8 м/с43%1004 гПаоблачно
14:00+19З, 8 м/с42%1005 гПас прояснениями
15:00+19З, 7 м/с41%1005 гПас прояснениями
16:00+19З, 7 м/с40%1005 гПас прояснениями
17:00+19З, 7 м/с41%1006 гПамалооблачно
18:00+18З, 7 м/с41%1006 гПамалооблачно
19:00+18З, 5 м/с46%1007 гПамалооблачно
20:00+16З, 4 м/с53%1007 гПаясно
21:00+15З, 4 м/с59%1008 гПаясно
22:00+14З, 4 м/с63%1008 гПаясно
23:00+13З, 3 м/с68%1008 гПаясно
27 июня
00:00+12ЮЗ, 3 м/с75%1008 гПаясно
01:00+11ЮЗ, 2 м/с82%1008 гПаясно
02:00+10ЮЗ, 2 м/с90%1008 гПаясно
03:00+10ЮЗ, 2 м/с93%1009 гПас прояснениями
04:00+11ЮЗ, 2 м/с90%1008 гПаоблачно
05:00+14З, 3 м/с82%1009 гПаоблачно
06:00+16З, 3 м/с74%1008 гПамалооблачно
07:00+19ЮЗ, 3 м/с66%1008 гПас прояснениями
08:00+21ЮЗ, 4 м/с61%1008 гПамалооблачно
09:00+22ЮЗ, 5 м/с54%1007 гПаясно